Time;durP1;ratioP1;P1;durP2;ratioP2;P2;SDS_P1;SDS_P2;PMS_P1;PMS_P2;Temp;Humidity;BMP_temperature;BMP_pressure;BME280_temperature;BME280_humidity;BME280_pressure;Samples;Min_cycle;Max_cycle;Signal;HPM_P1;HPM_P2
2022/01/05 00:01:24;;;;;;;5.50;1.30;;;24.30;99.90;;;;;;5076287;28;20633;-81
2022/01/05 00:03:54;;;;;;;8.50;1.48;;;24.40;99.90;;;;;;5076335;28;20188;-82
2022/01/05 00:06:25;;;;;;;6.28;1.50;;;24.30;99.90;;;;;;5076051;28;20565;-80
2022/01/05 00:08:56;;;;;;;5.70;1.42;;;24.20;99.90;;;;;;5075588;28;20193;-80
2022/01/05 00:11:28;;;;;;;8.40;1.60;;;24.20;99.90;;;;;;5074996;28;20213;-79
2022/01/05 00:13:59;;;;;;;7.43;1.80;;;24.40;99.90;;;;;;5075711;28;20248;-78
2022/01/05 00:16:30;;;;;;;9.95;1.73;;;24.80;99.90;;;;;;5075617;28;20262;-78
2022/01/05 00:19:00;;;;;;;7.35;1.60;;;24.90;99.90;;;;;;5075766;28;20192;-79
2022/01/05 00:21:31;;;;;;;8.25;1.77;;;25.10;99.90;;;;;;5068487;28;20209;-78
2022/01/05 00:24:02;;;;;;;7.25;1.50;;;25.00;99.90;;;;;;5061856;28;20701;-79
2022/01/05 00:26:35;;;;;;;8.40;1.45;;;24.80;99.90;;;;;;5075772;28;20201;-80
2022/01/05 00:29:06;;;;;;;8.00;1.80;;;24.70;99.90;;;;;;5075815;28;20189;-78
2022/01/05 00:31:36;;;;;;;7.78;1.40;;;24.70;99.90;;;;;;5075141;28;20212;-78
2022/01/05 00:34:07;;;;;;;8.27;1.50;;;24.70;99.90;;;;;;5075597;28;20193;-79
2022/01/05 00:36:38;;;;;;;8.75;1.88;;;24.60;99.90;;;;;;5075719;28;20597;-79
2022/01/05 00:39:09;;;;;;;10.32;1.95;;;24.50;99.90;;;;;;5075527;28;20589;-80
2022/01/05 00:41:41;;;;;;;5.68;1.20;;;24.50;99.90;;;;;;5075460;28;20200;-80
2022/01/05 00:44:12;;;;;;;5.80;1.00;;;24.40;99.90;;;;;;5075465;28;20199;-81
2022/01/05 00:46:43;;;;;;;5.75;1.02;;;24.00;99.90;;;;;;5075468;28;20200;-80
2022/01/05 00:49:13;;;;;;;6.30;1.23;;;23.90;99.90;;;;;;5075340;28;20189;-81
2022/01/05 00:51:44;;;;;;;6.38;1.20;;;23.80;99.90;;;;;;5075188;28;20519;-80
2022/01/05 00:54:18;;;;;;;4.35;0.90;;;23.70;99.90;;;;;;5074901;28;20192;-81
2022/01/05 00:56:50;;;;;;;3.78;0.80;;;23.50;99.90;;;;;;5075045;28;20199;-80
2022/01/05 00:59:21;;;;;;;6.53;1.00;;;23.30;99.90;;;;;;5075267;28;20189;-80
2022/01/05 01:01:52;;;;;;;3.17;0.80;;;23.30;99.90;;;;;;5075193;28;20185;-80
2022/01/05 01:04:22;;;;;;;2.97;0.93;;;23.20;99.90;;;;;;5075134;28;20197;-80
2022/01/05 01:06:53;;;;;;;5.78;1.27;;;23.30;99.90;;;;;;5073852;28;20254;-79
2022/01/05 01:09:24;;;;;;;4.97;1.25;;;23.60;99.90;;;;;;5075109;28;20211;-83
2022/01/05 01:11:56;;;;;;;4.00;1.02;;;23.80;99.90;;;;;;5074772;28;20212;-84
2022/01/05 01:14:27;;;;;;;7.90;1.20;;;23.90;99.90;;;;;;5074854;28;20700;-84
2022/01/05 01:16:58;;;;;;;7.57;1.40;;;24.00;99.90;;;;;;5074889;28;20189;-85
2022/01/05 01:19:28;;;;;;;9.10;1.48;;;24.20;99.90;;;;;;5074820;28;20197;-84
2022/01/05 01:21:59;;;;;;;9.35;1.42;;;24.30;99.90;;;;;;5074772;28;20254;-84
2022/01/05 01:24:30;;;;;;;10.23;1.80;;;24.50;99.90;;;;;;5074247;28;20248;-84
2022/01/05 01:27:02;;;;;;;9.82;1.73;;;24.60;99.90;;;;;;5074406;28;20193;-82
2022/01/05 01:29:33;;;;;;;10.32;1.80;;;24.50;99.90;;;;;;5074626;28;20238;-81
2022/01/05 01:32:04;;;;;;;8.98;1.63;;;24.50;99.90;;;;;;5073868;28;20676;-82
2022/01/05 01:34:35;;;;;;;8.10;1.70;;;24.40;99.90;;;;;;5074497;28;20189;-81
2022/01/05 01:37:06;;;;;;;10.13;1.70;;;24.50;99.90;;;;;;5074551;28;20671;-80
2022/01/05 01:39:37;;;;;;;8.68;1.80;;;24.70;99.90;;;;;;5074389;28;20197;-81
2022/01/05 01:42:10;;;;;;;9.15;1.70;;;24.80;99.90;;;;;;5074370;28;20258;-80
2022/01/05 01:44:41;;;;;;;10.35;2.13;;;24.70;99.90;;;;;;5074333;28;20211;-80
2022/01/05 01:47:11;;;;;;;11.18;1.70;;;24.70;99.90;;;;;;5074139;28;20196;-80
2022/01/05 01:49:43;;;;;;;8.20;1.60;;;24.60;99.90;;;;;;5074146;28;20189;-79
2022/01/05 01:52:13;;;;;;;7.65;1.38;;;24.60;99.90;;;;;;5074036;28;20213;-81
2022/01/05 01:54:44;;;;;;;8.73;1.40;;;24.30;99.90;;;;;;5073652;28;20189;-79
2022/01/05 01:57:17;;;;;;;8.20;1.63;;;24.10;99.90;;;;;;5074125;28;20185;-82
2022/01/05 01:59:48;;;;;;;7.38;1.40;;;23.80;99.90;;;;;;5073870;28;20563;-82
2022/01/05 02:02:19;;;;;;;8.20;1.50;;;23.70;99.90;;;;;;5073802;28;20196;-80
2022/01/05 02:04:50;;;;;;;8.93;1.52;;;23.70;99.90;;;;;;5073954;28;20197;-81
2022/01/05 02:07:21;;;;;;;8.82;1.48;;;23.70;99.90;;;;;;5074046;28;20641;-82
2022/01/05 02:09:51;;;;;;;9.00;1.50;;;23.80;99.90;;;;;;5073763;28;20193;-83
2022/01/05 02:12:26;;;;;;;13.45;1.90;;;23.90;99.90;;;;;;5073716;28;20212;-82
2022/01/05 02:14:57;;;;;;;9.02;1.55;;;23.90;99.90;;;;;;5073478;28;20228;-81
2022/01/05 02:17:43;;;;;;;4.90;1.15;;;23.90;99.90;;;;;;5072838;28;20242;-83
2022/01/05 02:20:21;;;;;;;6.45;1.27;;;23.90;99.90;;;;;;5073562;28;20189;-83
2022/01/05 02:22:54;;;;;;;3.70;0.88;;;24.00;99.90;;;;;;5062238;28;20198;-85
2022/01/05 02:25:25;;;;;;;4.38;0.77;;;24.30;99.90;;;;;;5053580;28;20193;-81
2022/01/05 02:27:58;;;;;;;3.40;0.60;;;24.40;99.90;;;;;;5053705;28;20546;-81
2022/01/05 02:30:30;;;;;;;5.38;0.80;;;24.50;99.90;;;;;;5053237;28;20196;-80
2022/01/05 02:33:02;;;;;;;3.22;0.73;;;24.80;99.90;;;;;;5053401;28;20221;-81
2022/01/05 02:35:32;;;;;;;4.35;0.70;;;25.00;99.90;;;;;;5053389;28;20277;-81
2022/01/05 02:38:05;;;;;;;2.25;0.50;;;25.20;99.90;;;;;;5053472;28;20189;-81
2022/01/05 02:40:36;;;;;;;4.03;0.70;;;25.20;99.90;;;;;;5053428;28;20190;-78
2022/01/05 02:43:06;;;;;;;5.28;0.60;;;25.20;99.90;;;;;;5053450;28;20193;-79
2022/01/05 02:45:37;;;;;;;3.45;0.70;;;25.20;99.90;;;;;;5052898;28;20200;-79
2022/01/05 02:48:08;;;;;;;6.72;0.98;;;25.30;99.90;;;;;;5070719;28;20193;-80
2022/01/05 02:50:39;;;;;;;3.15;0.70;;;25.20;99.90;;;;;;5073271;28;20191;-79
2022/01/05 02:53:11;;;;;;;7.28;0.73;;;25.00;99.90;;;;;;5073244;28;20220;-79
2022/01/05 02:55:42;;;;;;;2.83;0.80;;;24.80;99.90;;;;;;5073285;28;20196;-80
2022/01/05 02:58:13;;;;;;;3.80;0.70;;;24.60;99.90;;;;;;5073129;28;20189;-79
2022/01/05 03:00:44;;;;;;;4.07;0.70;;;24.50;99.90;;;;;;5073235;28;20193;-79
2022/01/05 03:03:14;;;;;;;2.50;0.60;;;24.50;99.90;;;;;;5073142;28;20192;-79
2022/01/05 03:05:45;;;;;;;3.35;0.70;;;24.50;99.90;;;;;;5073027;28;20200;-79
2022/01/05 03:08:18;;;;;;;3.33;0.60;;;24.50;99.90;;;;;;5072870;28;20242;-82
2022/01/05 03:10:49;;;;;;;2.92;0.50;;;24.50;99.90;;;;;;5073113;28;20193;-79
2022/01/05 03:13:19;;;;;;;2.40;0.50;;;24.50;99.90;;;;;;5072865;28;20603;-79
2022/01/05 03:15:50;;;;;;;2.40;0.60;;;24.60;99.90;;;;;;5073060;28;20192;-81
2022/01/05 03:18:21;;;;;;;3.78;0.63;;;24.70;99.90;;;;;;5073068;28;20664;-81
2022/01/05 03:20:51;;;;;;;4.22;0.70;;;24.70;99.90;;;;;;5073070;28;20197;-81
2022/01/05 03:23:24;;;;;;;4.28;0.85;;;24.60;99.90;;;;;;5072845;28;20224;-79
2022/01/05 03:25:55;;;;;;;4.03;0.75;;;24.50;99.90;;;;;;5073021;28;20189;-79
2022/01/05 03:28:26;;;;;;;3.20;0.73;;;24.50;99.90;;;;;;5072820;28;20192;-79
2022/01/05 03:30:57;;;;;;;3.30;0.68;;;24.30;99.90;;;;;;5075473;28;20200;-80
2022/01/05 03:33:27;;;;;;;2.72;0.70;;;24.10;99.90;;;;;;5076826;28;20216;-79
2022/01/05 03:35:58;;;;;;;3.35;0.82;;;23.80;99.90;;;;;;5076932;28;20197;-81
2022/01/05 03:38:30;;;;;;;3.45;0.80;;;23.60;99.90;;;;;;5076413;28;20238;-80
2022/01/05 03:41:01;;;;;;;3.33;0.80;;;23.50;99.90;;;;;;5076814;28;20205;-80
2022/01/05 03:43:32;;;;;;;5.78;1.10;;;23.50;99.90;;;;;;5076675;28;20577;-85
2022/01/05 03:46:03;;;;;;;5.82;1.00;;;23.30;99.90;;;;;;5076630;28;20629;-81
2022/01/05 03:48:33;;;;;;;7.38;1.20;;;23.20;99.90;;;;;;5076705;28;20189;-80
2022/01/05 03:51:04;;;;;;;5.82;1.02;;;23.20;99.90;;;;;;5076147;28;20185;-80
2022/01/05 03:53:37;;;;;;;6.72;1.27;;;23.30;99.90;;;;;;5076419;28;20217;-81
2022/01/05 03:56:07;;;;;;;7.18;1.17;;;23.40;99.90;;;;;;5076487;28;20197;-80
2022/01/05 03:58:38;;;;;;;7.03;1.00;;;23.40;99.90;;;;;;5076205;28;20193;-80
2022/01/05 04:01:09;;;;;;;6.50;1.10;;;23.40;99.90;;;;;;5076476;28;20185;-79
2022/01/05 04:03:39;;;;;;;3.28;0.75;;;23.40;99.90;;;;;;5076171;28;20193;-80
2022/01/05 04:06:11;;;;;;;4.30;2.75;;;23.30;99.90;;;;;;5076404;28;20196;-79
2022/01/05 04:08:44;;;;;;;3.80;0.75;;;23.30;99.90;;;;;;5076735;28;20203;-79
2022/01/05 04:11:15;;;;;;;3.83;1.23;;;23.30;99.90;;;;;;5075923;28;20566;-79
2022/01/05 04:13:45;;;;;;;4.80;0.90;;;23.20;99.90;;;;;;5075855;28;20248;-79
2022/01/05 04:16:16;;;;;;;3.30;0.50;;;23.20;99.90;;;;;;5076206;28;20197;-79
2022/01/05 04:18:47;;;;;;;4.78;0.65;;;23.20;99.90;;;;;;5076084;28;20707;-79
2022/01/05 04:21:17;;;;;;;4.30;0.70;;;23.20;99.90;;;;;;5076078;28;20188;-79
2022/01/05 04:23:50;;;;;;;3.45;0.60;;;23.10;99.90;;;;;;5063889;28;20234;-79
2022/01/05 04:26:21;;;;;;;2.08;0.70;;;23.10;99.90;;;;;;5055793;28;20194;-81
2022/01/05 04:28:54;;;;;;;5.47;1.10;;;23.10;99.90;;;;;;5068285;28;20197;-81
2022/01/05 04:31:25;;;;;;;6.40;0.93;;;23.10;99.90;;;;;;5075837;28;20202;-83
2022/01/05 04:33:55;;;;;;;4.38;1.02;;;23.10;99.90;;;;;;5075726;28;20213;-80
2022/01/05 04:36:26;;;;;;;5.50;0.90;;;23.10;99.90;;;;;;5075814;28;20534;-81
2022/01/05 04:38:59;;;;;;;3.00;1.00;;;23.10;99.90;;;;;;5075768;28;20282;-81
2022/01/05 04:41:29;;;;;;;3.78;1.30;;;23.10;99.90;;;;;;5075243;28;20200;-81
2022/01/05 04:44:00;;;;;;;2.35;0.80;;;23.20;99.90;;;;;;5075621;28;20185;-81
2022/01/05 04:46:30;;;;;;;5.78;1.00;;;23.20;99.90;;;;;;5075623;28;20199;-81
2022/01/05 04:49:01;;;;;;;6.70;1.08;;;23.10;99.90;;;;;;5075625;28;20193;-81
2022/01/05 04:51:32;;;;;;;3.17;1.00;;;23.10;99.90;;;;;;5075394;28;20193;-81
2022/01/05 04:54:04;;;;;;;4.43;1.10;;;23.10;99.90;;;;;;5075369;28;20225;-82
2022/01/05 04:56:35;;;;;;;5.80;0.90;;;23.20;99.90;;;;;;5075445;28;20204;-82
2022/01/05 04:59:06;;;;;;;6.15;1.20;;;23.10;99.90;;;;;;5075119;28;20193;-81
2022/01/05 05:01:36;;;;;;;4.70;1.00;;;23.10;99.90;;;;;;5075394;28;20246;-79
2022/01/05 05:04:07;;;;;;;4.68;1.40;;;23.10;99.90;;;;;;5075309;28;20196;-80
2022/01/05 05:06:37;;;;;;;5.95;1.45;;;23.10;99.90;;;;;;5075301;28;20310;-82
2022/01/05 05:09:10;;;;;;;5.13;1.00;;;23.10;99.90;;;;;;5075036;28;20184;-82
2022/01/05 05:11:41;;;;;;;3.85;1.10;;;23.10;99.90;;;;;;5075075;28;20204;-82
2022/01/05 05:14:12;;;;;;;4.22;1.10;;;23.10;99.90;;;;;;5074905;28;20247;-82
2022/01/05 05:16:42;;;;;;;5.28;1.35;;;23.10;99.90;;;;;;5075033;28;20562;-82
2022/01/05 05:19:13;;;;;;;5.70;1.38;;;23.10;99.90;;;;;;5075114;28;20216;-83
2022/01/05 05:21:44;;;;;;;4.72;1.17;;;23.10;99.90;;;;;;5074947;28;20262;-82
2022/01/05 05:24:16;;;;;;;4.40;1.52;;;23.10;99.90;;;;;;5074643;28;20224;-82
2022/01/05 05:26:47;;;;;;;3.65;1.20;;;23.10;99.90;;;;;;5074942;28;20185;-83
2022/01/05 05:29:18;;;;;;;6.88;1.45;;;23.20;99.90;;;;;;5074636;28;20222;-82
2022/01/05 05:31:48;;;;;;;3.60;1.17;;;23.20;99.90;;;;;;5074644;28;20204;-83
2022/01/05 05:34:19;;;;;;;7.63;1.80;;;23.20;99.90;;;;;;5074634;28;20689;-83
2022/01/05 05:36:49;;;;;;;6.80;1.50;;;23.30;99.90;;;;;;5074713;28;20185;-82
2022/01/05 05:39:22;;;;;;;7.55;1.60;;;23.30;99.90;;;;;;5074460;28;20186;-82
2022/01/05 05:41:53;;;;;;;6.20;1.50;;;23.30;99.90;;;;;;5074559;28;20204;-82
2022/01/05 05:44:23;;;;;;;10.35;1.40;;;23.40;99.90;;;;;;5074489;28;20270;-81
2022/01/05 05:46:54;;;;;;;8.05;1.50;;;23.40;99.90;;;;;;5074472;28;20251;-81
2022/01/05 05:49:24;;;;;;;7.13;1.38;;;23.40;99.90;;;;;;5074426;28;20254;-80
2022/01/05 05:51:55;;;;;;;10.75;1.60;;;23.50;99.90;;;;;;5074187;28;20192;-81
2022/01/05 05:54:28;;;;;;;7.20;1.40;;;23.60;99.90;;;;;;5072853;28;20212;-83
2022/01/05 05:56:58;;;;;;;4.93;1.10;;;23.50;99.90;;;;;;5073956;28;20633;-80
2022/01/05 05:59:29;;;;;;;8.20;1.50;;;23.50;99.90;;;;;;5074370;28;20185;-81
2022/01/05 06:01:59;;;;;;;9.43;1.50;;;23.50;99.90;;;;;;5074233;28;20188;-81
2022/01/05 06:04:30;;;;;;;6.65;1.50;;;23.50;99.90;;;;;;5074180;28;20595;-81
2022/01/05 06:07:01;;;;;;;9.57;1.70;;;23.50;99.90;;;;;;5073853;28;20274;-81
2022/01/05 06:09:34;;;;;;;6.63;1.60;;;23.50;99.90;;;;;;5074037;28;20193;-80
2022/01/05 06:12:04;;;;;;;9.63;1.60;;;23.50;99.90;;;;;;5073884;28;20588;-81
2022/01/05 06:14:35;;;;;;;6.35;1.38;;;23.60;99.90;;;;;;5073588;28;20233;-81
2022/01/05 06:17:06;;;;;;;5.35;1.52;;;23.60;99.90;;;;;;5074012;28;20242;-81
2022/01/05 06:19:37;;;;;;;5.35;1.27;;;23.70;99.90;;;;;;5073828;28;20189;-81
2022/01/05 06:22:07;;;;;;;6.40;1.20;;;23.70;99.90;;;;;;5073673;28;20193;-79
2022/01/05 06:24:42;;;;;;;4.57;1.25;;;23.80;99.90;;;;;;5061577;28;20221;-81
2022/01/05 06:27:13;;;;;;;9.25;1.50;;;23.90;99.90;;;;;;5053683;28;20311;-81
2022/01/05 06:29:43;;;;;;;9.63;1.65;;;23.90;99.90;;;;;;5053597;28;20189;-81
2022/01/05 06:32:14;;;;;;;8.82;1.30;;;24.00;99.90;;;;;;5053499;28;20246;-81
2022/01/05 06:34:45;;;;;;;8.70;1.80;;;24.10;99.90;;;;;;5053407;28;20778;-81
2022/01/05 06:37:17;;;;;;;9.65;1.60;;;24.10;99.90;;;;;;5072460;28;20562;-80
2022/01/05 06:39:50;;;;;;;9.15;1.90;;;24.30;99.90;;;;;;5082670;28;20265;-81
2022/01/05 06:42:20;;;;;;;11.60;2.30;;;24.30;99.90;;;;;;5073810;28;20189;-80
2022/01/05 06:44:51;;;;;;;12.27;2.20;;;24.30;99.90;;;;;;5080683;28;20557;-80
2022/01/05 06:47:22;;;;;;;13.30;2.30;;;24.50;99.90;;;;;;5083692;28;20196;-81
2022/01/05 06:49:52;;;;;;;15.20;2.65;;;24.60;99.90;;;;;;5072847;28;20189;-81
2022/01/05 06:52:23;;;;;;;17.52;2.45;;;24.70;99.90;;;;;;5072944;28;20242;-80
2022/01/05 06:54:56;;;;;;;15.82;2.67;;;24.70;99.90;;;;;;5083365;28;20223;-79
2022/01/05 06:57:26;;;;;;;18.10;2.92;;;24.60;99.90;;;;;;5085919;28;20192;-80
2022/01/05 06:59:57;;;;;;;14.88;2.75;;;24.60;99.90;;;;;;5066945;28;20643;-79
2022/01/05 07:02:28;;;;;;;18.52;3.35;;;24.60;99.90;;;;;;5077478;28;20192;-80
2022/01/05 07:04:59;;;;;;;22.52;3.40;;;24.60;99.90;;;;;;5085246;28;20260;-80
2022/01/05 07:07:30;;;;;;;16.98;3.00;;;24.50;99.90;;;;;;5086132;28;20188;-80
2022/01/05 07:10:02;;;;;;;15.07;2.95;;;24.60;99.90;;;;;;5077405;28;20189;-80
2022/01/05 07:12:33;;;;;;;17.42;3.08;;;24.60;99.90;;;;;;5076915;28;20188;-80
2022/01/05 07:15:04;;;;;;;17.90;3.10;;;24.60;99.90;;;;;;5070334;28;20240;-79
2022/01/05 07:17:35;;;;;;;16.30;3.05;;;24.50;99.90;;;;;;5072456;28;20189;-79
2022/01/05 07:20:06;;;;;;;21.08;3.38;;;24.50;99.90;;;;;;5079043;28;20189;-79
2022/01/05 07:22:37;;;;;;;17.95;3.03;;;24.40;99.90;;;;;;5075564;28;20192;-79
2022/01/05 07:25:10;;;;;;;20.25;3.45;;;24.40;99.90;;;;;;5078079;28;20188;-79
2022/01/05 07:27:42;;;;;;;21.05;3.25;;;24.40;99.90;;;;;;5079898;28;20188;-79
2022/01/05 07:30:14;;;;;;;18.38;3.28;;;24.50;99.90;;;;;;5082356;28;20535;-79
2022/01/05 07:32:45;;;;;;;23.92;3.45;;;24.50;99.90;;;;;;5087497;28;20188;-79
2022/01/05 07:35:15;;;;;;;20.02;3.88;;;24.50;99.90;;;;;;5079037;28;20611;-81
2022/01/05 07:37:46;;;;;;;19.23;3.17;;;24.50;99.90;;;;;;5081768;28;20562;-80
2022/01/05 07:40:19;;;;;;;21.20;3.22;;;24.60;99.90;;;;;;5076279;28;20246;-80
2022/01/05 07:42:49;;;;;;;22.65;3.80;;;24.50;99.90;;;;;;5079222;28;20641;-78
2022/01/05 07:45:20;;;;;;;19.52;3.38;;;24.50;99.90;;;;;;5081560;28;20208;-80
2022/01/05 07:47:51;;;;;;;21.45;3.95;;;24.50;99.90;;;;;;5082889;28;20545;-80
2022/01/05 07:50:21;;;;;;;24.95;3.50;;;24.50;99.90;;;;;;5080046;28;20242;-80
2022/01/05 07:53:00;;;;;;;20.67;3.63;;;24.60;99.90;;;;;;5077129;28;20220;-78
2022/01/05 07:55:35;;;;;;;22.60;3.60;;;24.60;99.90;;;;;;5078946;28;20243;-78
2022/01/05 07:58:06;;;;;;;25.80;3.88;;;24.70;99.90;;;;;;5078224;28;20193;-80
2022/01/05 08:00:36;;;;;;;26.05;3.97;;;24.80;99.90;;;;;;5078344;28;20594;-80
2022/01/05 08:03:10;;;;;;;24.80;3.80;;;24.80;99.90;;;;;;5077695;28;20196;-79
2022/01/05 08:05:41;;;;;;;22.60;3.92;;;24.70;99.90;;;;;;5072759;28;20201;-80
2022/01/05 08:08:12;;;;;;;28.73;4.13;;;24.60;99.90;;;;;;5076987;28;20213;-80
2022/01/05 08:10:45;;;;;;;24.13;4.10;;;24.60;99.90;;;;;;5083469;28;20227;-80
2022/01/05 08:13:15;;;;;;;34.50;4.43;;;24.60;99.90;;;;;;5071692;28;20243;-82
2022/01/05 08:15:46;;;;;;;25.42;4.30;;;24.50;99.90;;;;;;5079868;28;20208;-80
2022/01/05 08:18:17;;;;;;;28.88;4.10;;;24.50;99.90;;;;;;5074321;28;20229;-79
2022/01/05 08:20:48;;;;;;;26.50;4.22;;;24.40;99.90;;;;;;5076130;28;20197;-80
2022/01/05 08:23:19;;;;;;;26.48;3.80;;;24.30;99.90;;;;;;5071494;28;20228;-80
2022/01/05 08:25:52;;;;;;;27.52;4.32;;;24.30;99.90;;;;;;5077930;28;20197;-80
2022/01/05 08:28:23;;;;;;;35.55;4.13;;;24.30;99.90;;;;;;5084078;28;20190;-80
2022/01/05 08:30:54;;;;;;;29.00;3.80;;;24.30;99.90;;;;;;5077679;28;20351;-80
2022/01/05 08:33:25;;;;;;;24.65;4.10;;;24.20;99.90;;;;;;5075429;28;20188;-79
2022/01/05 08:35:55;;;;;;;28.55;4.40;;;24.20;99.90;;;;;;5075364;28;20209;-80
2022/01/05 08:38:26;;;;;;;27.88;4.75;;;24.10;99.90;;;;;;5076197;28;20208;-80
2022/01/05 08:40:59;;;;;;;28.13;4.35;;;24.10;99.90;;;;;;5082351;28;20258;-80
2022/01/05 08:43:31;;;;;;;35.17;4.22;;;24.10;99.90;;;;;;5085980;28;20238;-80
2022/01/05 08:46:02;;;;;;;36.42;5.45;;;24.10;99.90;;;;;;5075366;28;20228;-80
2022/01/05 08:48:33;;;;;;;27.70;3.85;;;24.00;99.90;;;;;;5078999;28;20245;-80
2022/01/05 08:51:03;;;;;;;27.48;3.95;;;24.00;99.90;;;;;;5076304;28;20242;-80
2022/01/05 08:53:34;;;;;;;28.30;4.50;;;24.00;99.90;;;;;;5060792;28;20270;-80
2022/01/05 08:56:07;;;;;;;28.30;4.80;;;24.00;99.90;;;;;;5055176;28;20271;-81
2022/01/05 08:58:37;;;;;;;28.52;4.47;;;24.00;99.90;;;;;;5066584;28;20189;-81
2022/01/05 09:01:10;;;;;;;29.27;3.95;;;24.00;99.90;;;;;;5086579;28;20189;-80
2022/01/05 09:03:41;;;;;;;31.23;4.55;;;23.90;99.90;;;;;;5061996;28;20201;-80
2022/01/05 09:06:12;;;;;;;28.63;4.18;;;23.90;99.90;;;;;;5058260;28;20218;-78
2022/01/05 09:08:42;;;;;;;25.48;3.83;;;23.90;99.90;;;;;;5058216;28;20201;-80
2022/01/05 09:11:15;;;;;;;24.13;4.43;;;23.90;99.90;;;;;;5069568;28;20613;-81
2022/01/05 09:13:46;;;;;;;29.77;4.22;;;23.90;99.90;;;;;;5069816;28;20314;-81
2022/01/05 09:16:16;;;;;;;33.00;4.55;;;23.80;99.90;;;;;;5058171;28;20216;-80
2022/01/05 09:18:47;;;;;;;24.83;4.53;;;23.80;99.90;;;;;;5076024;28;20185;-80
2022/01/05 09:21:18;;;;;;;25.95;4.00;;;23.80;99.90;;;;;;5071485;28;20223;-80
2022/01/05 09:23:50;;;;;;;27.85;4.00;;;23.80;99.90;;;;;;5079977;28;20216;-80
2022/01/05 09:26:22;;;;;;;30.10;4.47;;;23.70;99.90;;;;;;5079101;28;20197;-80
2022/01/05 09:28:53;;;;;;;25.20;4.40;;;23.70;99.90;;;;;;5081740;28;20197;-80
2022/01/05 09:31:24;;;;;;;23.92;4.03;;;23.70;99.90;;;;;;5073616;28;20200;-80
2022/01/05 09:33:54;;;;;;;26.77;3.97;;;23.70;99.90;;;;;;5056005;28;20198;-81
2022/01/05 09:36:34;;;;;;;30.75;4.30;;;23.70;99.90;;;;;;5079336;28;20197;-80
2022/01/05 09:42:00;;;;;;;29.23;4.13;;;23.70;99.90;;;;;;5065317;28;20238;-80
2022/01/05 09:44:38;;;;;;;27.25;4.10;;;23.70;99.90;;;;;;5090928;28;20275;-80
2022/01/05 09:47:33;;;;;;;26.45;4.47;;;23.70;99.90;;;;;;5090681;28;20272;-78
2022/01/05 09:50:07;;;;;;;28.38;4.55;;;23.70;99.90;;;;;;5070296;28;20562;-80
2022/01/05 09:52:39;;;;;;;29.55;4.40;;;23.70;99.90;;;;;;5081250;28;20243;-79
2022/01/05 09:55:11;;;;;;;29.65;4.18;;;23.70;99.90;;;;;;5073112;28;20246;-80
2022/01/05 09:57:46;;;;;;;28.70;4.63;;;23.70;99.90;;;;;;5067852;28;20193;-81
2022/01/05 10:00:22;;;;;;;29.65;4.03;;;23.70;99.90;;;;;;5066715;28;20189;-80
2022/01/05 10:02:53;;;;;;;29.95;4.32;;;23.70;99.90;;;;;;5088420;28;20192;-80
2022/01/05 10:05:24;;;;;;;25.80;3.97;;;23.70;99.90;;;;;;5080659;28;20663;-79
2022/01/05 10:07:55;;;;;;;22.45;3.40;;;23.70;99.90;;;;;;5087336;28;20533;-80
2022/01/05 10:10:27;;;;;;;34.92;4.53;;;23.70;99.90;;;;;;5072400;28;20649;-81
2022/01/05 10:13:01;;;;;;;27.50;4.15;;;23.60;99.90;;;;;;5085171;28;20249;-80
2022/01/05 10:15:32;;;;;;;30.98;4.03;;;23.70;99.90;;;;;;5068971;28;20231;-81
2022/01/05 10:18:18;;;;;;;25.90;3.88;;;23.70;99.90;;;;;;5074471;28;20717;-79
2022/01/05 10:21:01;;;;;;;28.17;3.85;;;23.70;99.90;;;;;;5085479;28;20196;-80
2022/01/05 10:23:43;;;;;;;32.28;4.55;;;23.70;99.90;;;;;;5091909;28;20197;-80
2022/01/05 10:26:38;;;;;;;24.92;3.88;;;23.80;99.90;;;;;;5069149;28;20228;-80
2022/01/05 10:29:16;;;;;;;29.17;4.03;;;23.80;99.90;;;;;;5055561;28;20207;-80
2022/01/05 10:31:57;;;;;;;30.45;4.30;;;23.80;99.90;;;;;;5074192;28;20549;-80
2022/01/05 10:34:31;;;;;;;22.63;3.97;;;23.80;99.90;;;;;;5077727;28;20180;-80
2022/01/05 10:37:06;;;;;;;28.40;4.07;;;23.80;99.90;;;;;;5086088;28;20557;-80
2022/01/05 10:39:39;;;;;;;29.05;4.10;;;23.80;99.90;;;;;;5073340;28;20185;-80
2022/01/05 10:42:11;;;;;;;28.70;4.25;;;23.70;99.90;;;;;;5075849;28;20614;-79
2022/01/05 10:44:45;;;;;;;29.45;4.45;;;23.70;99.90;;;;;;5073138;28;20185;-80
2022/01/05 10:47:18;;;;;;;32.33;4.20;;;23.70;99.90;;;;;;5074262;28;20189;-80
2022/01/05 10:49:51;;;;;;;31.67;4.70;;;23.70;99.90;;;;;;5081302;28;20197;-80
2022/01/05 10:52:28;;;;;;;27.58;4.00;;;23.60;99.90;;;;;;5073736;28;20197;-80
2022/01/05 10:55:10;;;;;;;23.40;3.70;;;23.60;99.90;;;;;;5076332;28;20209;-80
2022/01/05 10:57:41;;;;;;;29.63;4.63;;;23.60;99.90;;;;;;5090513;28;20195;-80
2022/01/05 11:00:15;;;;;;;33.83;4.50;;;23.60;99.90;;;;;;5083271;28;20250;-80
2022/01/05 11:02:46;;;;;;;32.03;3.92;;;23.60;99.90;;;;;;5072177;28;20549;-80
2022/01/05 11:05:17;;;;;;;28.38;4.03;;;23.60;99.90;;;;;;5074573;28;20192;-80
2022/01/05 11:07:48;;;;;;;20.95;3.25;;;23.60;99.90;;;;;;5073547;28;20192;-80
2022/01/05 11:10:21;;;;;;;32.17;4.13;;;23.60;99.90;;;;;;5067377;28;20195;-80
2022/01/05 11:12:56;;;;;;;29.45;4.30;;;23.60;99.90;;;;;;5074385;28;20278;-80
2022/01/05 11:15:31;;;;;;;26.77;4.35;;;23.70;99.90;;;;;;5078927;28;20215;-80
2022/01/05 11:18:30;;;;;;;30.70;4.20;;;23.70;99.90;;;;;;5091357;28;20701;-80
2022/01/05 11:21:03;;;;;;;24.85;3.92;;;23.70;99.90;;;;;;5080129;28;20224;-80
2022/01/05 11:23:35;;;;;;;26.30;3.78;;;23.70;99.90;;;;;;5077194;28;20609;-81
2022/01/05 11:26:06;;;;;;;32.65;4.38;;;23.70;99.90;;;;;;5071721;28;20229;-80
2022/01/05 11:28:37;;;;;;;34.63;4.18;;;23.70;99.90;;;;;;5074357;28;20196;-78
2022/01/05 11:31:10;;;;;;;29.92;4.13;;;23.70;99.90;;;;;;5074969;28;20232;-79
2022/01/05 11:33:41;;;;;;;28.58;3.95;;;23.70;99.90;;;;;;5081879;28;20181;-80
2022/01/05 11:36:12;;;;;;;28.13;4.25;;;23.80;99.90;;;;;;5071200;28;20221;-80
2022/01/05 11:38:43;;;;;;;30.65;4.18;;;23.70;99.90;;;;;;5072305;28;20234;-80
2022/01/05 11:41:16;;;;;;;32.47;4.18;;;23.70;99.90;;;;;;5087412;28;20232;-80
2022/01/05 11:43:48;;;;;;;30.17;4.22;;;23.70;99.90;;;;;;5086216;28;20276;-80
2022/01/05 11:46:21;;;;;;;29.73;4.53;;;23.70;99.90;;;;;;5072524;28;20186;-81
2022/01/05 11:49:04;;;;;;;33.28;4.75;;;23.60;99.90;;;;;;5073428;28;20193;-81
2022/01/05 11:51:49;;;;;;;29.30;4.07;;;23.60;99.90;;;;;;5072755;28;20603;-83
2022/01/05 11:54:23;;;;;;;19.65;3.00;;;23.40;99.90;;;;;;5089735;28;20193;-81
2022/01/05 11:56:55;;;;;;;13.30;2.25;;;23.20;99.90;;;;;;5079304;28;20282;-82
2022/01/05 11:59:33;;;;;;;10.48;1.80;;;22.90;99.90;;;;;;5087323;28;20189;-83
2022/01/05 12:02:12;;;;;;;10.23;2.10;;;22.90;99.90;;;;;;5078788;28;20193;-83
2022/01/05 12:05:02;;;;;;;9.35;1.95;;;22.70;99.90;;;;;;5088754;28;20244;-79
2022/01/05 12:07:40;;;;;;;12.75;2.30;;;22.50;99.90;;;;;;5090182;28;20218;-81
2022/01/05 12:10:21;;;;;;;8.45;1.60;;;22.40;99.90;;;;;;5070811;28;20204;-80
2022/01/05 12:13:02;;;;;;;10.98;2.08;;;22.30;99.90;;;;;;5079663;28;20216;-80
2022/01/05 12:15:50;;;;;;;12.20;2.20;;;22.30;99.90;;;;;;5088574;28;20218;-80
2022/01/05 12:18:28;;;;;;;14.75;1.70;;;22.30;99.90;;;;;;5069783;28;20719;-81
2022/01/05 12:21:00;;;;;;;15.20;2.00;;;22.20;99.90;;;;;;5096122;28;20800;-80
2022/01/05 12:23:32;;;;;;;11.57;2.00;;;22.10;99.90;;;;;;5094417;28;20192;-80
2022/01/05 12:26:23;;;;;;;9.98;1.98;;;22.10;99.90;;;;;;5079820;28;20676;-80
2022/01/05 12:28:59;;;;;;;11.07;2.03;;;22.10;99.90;;;;;;5069891;28;20205;-78
2022/01/05 12:31:58;;;;;;;11.23;2.15;;;22.10;99.90;;;;;;5081700;28;20657;-80
2022/01/05 12:34:55;;;;;;;17.38;2.55;;;22.10;99.90;;;;;;5075774;28;20559;-80
2022/01/05 12:37:49;;;;;;;15.50;2.53;;;22.10;99.90;;;;;;5080403;28;20641;-79
2022/01/05 12:40:42;;;;;;;18.52;2.65;;;22.10;99.90;;;;;;5093445;28;20652;-78
2022/01/05 12:43:37;;;;;;;17.30;2.60;;;22.20;99.90;;;;;;5074986;28;20202;-80
2022/01/05 12:46:11;;;;;;;26.48;3.45;;;22.20;99.90;;;;;;5084831;28;20746;-80
2022/01/05 12:49:01;;;;;;;21.98;3.58;;;22.30;99.90;;;;;;5076379;28;20189;-78
2022/01/05 12:51:42;;;;;;;28.80;3.95;;;22.30;99.90;;;;;;5084933;28;20675;-79
2022/01/05 12:54:18;;;;;;;23.20;3.55;;;22.40;99.90;;;;;;5080391;28;20196;-79
2022/01/05 12:56:50;;;;;;;26.08;4.45;;;22.40;99.90;;;;;;5063629;28;20223;-79
2022/01/05 12:59:23;;;;;;;36.92;4.53;;;22.40;99.90;;;;;;5075248;28;20184;-78
2022/01/05 13:01:56;;;;;;;30.83;4.10;;;22.50;99.90;;;;;;5085453;28;20223;-78
2022/01/05 13:04:26;;;;;;;39.15;5.03;;;22.50;99.90;;;;;;5087492;28;20200;-79
2022/01/05 13:07:00;;;;;;;26.55;3.78;;;22.50;99.90;;;;;;5092231;28;20552;-80
2022/01/05 13:09:33;;;;;;;28.50;4.38;;;22.50;99.90;;;;;;5086923;28;20188;-79
2022/01/05 13:12:06;;;;;;;27.67;3.80;;;22.50;99.90;;;;;;5091079;28;20192;-80